sensor_id;sensor_type;location;lat;lon;timestamp;temperature;humidity
83466;DHT22;73393;51.946;20.140;2024-01-30T00:01:00;1.50;89.20
83466;DHT22;73393;51.946;20.140;2024-01-30T00:03:26;1.50;89.40
83466;DHT22;73393;51.946;20.140;2024-01-30T00:05:52;1.50;89.40
83466;DHT22;73393;51.946;20.140;2024-01-30T00:08:17;1.50;89.30
83466;DHT22;73393;51.946;20.140;2024-01-30T00:10:43;1.50;89.10
83466;DHT22;73393;51.946;20.140;2024-01-30T00:13:09;1.60;89.00
83466;DHT22;73393;51.946;20.140;2024-01-30T00:15:34;1.60;89.00
83466;DHT22;73393;51.946;20.140;2024-01-30T00:18:00;1.60;89.00
83466;DHT22;73393;51.946;20.140;2024-01-30T00:20:26;1.60;88.60
83466;DHT22;73393;51.946;20.140;2024-01-30T00:22:52;1.60;88.60
83466;DHT22;73393;51.946;20.140;2024-01-30T00:25:17;1.60;88.40
83466;DHT22;73393;51.946;20.140;2024-01-30T00:27:43;1.60;88.50
83466;DHT22;73393;51.946;20.140;2024-01-30T00:30:09;1.60;88.20
83466;DHT22;73393;51.946;20.140;2024-01-30T00:32:35;1.60;87.90
83466;DHT22;73393;51.946;20.140;2024-01-30T00:35:01;1.70;87.80
83466;DHT22;73393;51.946;20.140;2024-01-30T00:37:26;1.60;87.80
83466;DHT22;73393;51.946;20.140;2024-01-30T00:39:52;1.60;87.80
83466;DHT22;73393;51.946;20.140;2024-01-30T00:42:17;1.60;87.90
83466;DHT22;73393;51.946;20.140;2024-01-30T00:44:43;1.60;87.60
83466;DHT22;73393;51.946;20.140;2024-01-30T00:47:08;1.60;87.60
83466;DHT22;73393;51.946;20.140;2024-01-30T00:49:34;1.50;87.70
83466;DHT22;73393;51.946;20.140;2024-01-30T00:52:01;1.60;87.50
83466;DHT22;73393;51.946;20.140;2024-01-30T00:54:26;1.60;87.30
83466;DHT22;73393;51.946;20.140;2024-01-30T00:56:52;1.60;87.20
83466;DHT22;73393;51.946;20.140;2024-01-30T00:59:17;1.60;87.20
83466;DHT22;73393;51.946;20.140;2024-01-30T01:01:43;1.60;86.90
83466;DHT22;73393;51.946;20.140;2024-01-30T01:04:08;1.60;87.00
83466;DHT22;73393;51.946;20.140;2024-01-30T01:06:34;1.60;86.90
83466;DHT22;73393;51.946;20.140;2024-01-30T01:09:00;1.60;86.90
83466;DHT22;73393;51.946;20.140;2024-01-30T01:11:25;1.60;86.60
83466;DHT22;73393;51.946;20.140;2024-01-30T01:13:51;1.60;86.20
83466;DHT22;73393;51.946;20.140;2024-01-30T01:16:16;1.60;86.30
83466;DHT22;73393;51.946;20.140;2024-01-30T01:18:42;1.60;86.50
83466;DHT22;73393;51.946;20.140;2024-01-30T01:21:07;1.50;86.50
83466;DHT22;73393;51.946;20.140;2024-01-30T01:23:33;1.50;86.50
83466;DHT22;73393;51.946;20.140;2024-01-30T01:25:58;1.50;86.40
83466;DHT22;73393;51.946;20.140;2024-01-30T01:28:26;1.40;86.60
83466;DHT22;73393;51.946;20.140;2024-01-30T01:30:52;1.40;86.60
83466;DHT22;73393;51.946;20.140;2024-01-30T01:33:18;1.40;86.60
83466;DHT22;73393;51.946;20.140;2024-01-30T01:35:43;1.40;86.30
83466;DHT22;73393;51.946;20.140;2024-01-30T01:38:09;1.40;86.20
83466;DHT22;73393;51.946;20.140;2024-01-30T01:40:34;1.30;86.20
83466;DHT22;73393;51.946;20.140;2024-01-30T01:43:03;1.30;86.30
83466;DHT22;73393;51.946;20.140;2024-01-30T01:45:29;1.20;86.60
83466;DHT22;73393;51.946;20.140;2024-01-30T01:47:55;1.20;86.70
83466;DHT22;73393;51.946;20.140;2024-01-30T01:50:21;1.20;86.60
83466;DHT22;73393;51.946;20.140;2024-01-30T01:52:50;1.20;86.80
83466;DHT22;73393;51.946;20.140;2024-01-30T01:55:18;1.20;86.70
83466;DHT22;73393;51.946;20.140;2024-01-30T01:57:46;1.10;86.90
83466;DHT22;73393;51.946;20.140;2024-01-30T02:00:12;1.20;86.80
83466;DHT22;73393;51.946;20.140;2024-01-30T02:02:39;1.10;86.70
83466;DHT22;73393;51.946;20.140;2024-01-30T02:05:05;1.00;86.90
83466;DHT22;73393;51.946;20.140;2024-01-30T02:07:31;1.00;87.20
83466;DHT22;73393;51.946;20.140;2024-01-30T02:09:56;1.00;87.20
83466;DHT22;73393;51.946;20.140;2024-01-30T02:12:22;1.00;87.30
83466;DHT22;73393;51.946;20.140;2024-01-30T02:14:48;0.90;87.40
83466;DHT22;73393;51.946;20.140;2024-01-30T02:17:15;0.80;87.60
83466;DHT22;73393;51.946;20.140;2024-01-30T02:19:41;0.80;87.80
83466;DHT22;73393;51.946;20.140;2024-01-30T02:22:07;0.80;87.80
83466;DHT22;73393;51.946;20.140;2024-01-30T02:24:33;0.80;87.80
83466;DHT22;73393;51.946;20.140;2024-01-30T02:26:58;0.80;87.70
83466;DHT22;73393;51.946;20.140;2024-01-30T02:29:24;0.70;87.80
83466;DHT22;73393;51.946;20.140;2024-01-30T02:31:51;0.70;88.00
83466;DHT22;73393;51.946;20.140;2024-01-30T02:34:18;0.70;88.10
83466;DHT22;73393;51.946;20.140;2024-01-30T02:36:45;0.80;87.90
83466;DHT22;73393;51.946;20.140;2024-01-30T02:39:10;0.70;88.00
83466;DHT22;73393;51.946;20.140;2024-01-30T02:41:36;0.60;88.20
83466;DHT22;73393;51.946;20.140;2024-01-30T02:44:02;0.60;88.30
83466;DHT22;73393;51.946;20.140;2024-01-30T02:46:28;0.60;88.20
83466;DHT22;73393;51.946;20.140;2024-01-30T02:48:54;0.50;88.30
83466;DHT22;73393;51.946;20.140;2024-01-30T02:51:19;0.50;88.20
83466;DHT22;73393;51.946;20.140;2024-01-30T02:53:45;0.50;88.40
83466;DHT22;73393;51.946;20.140;2024-01-30T02:56:11;0.40;88.40
83466;DHT22;73393;51.946;20.140;2024-01-30T02:58:37;0.40;88.50
83466;DHT22;73393;51.946;20.140;2024-01-30T03:01:03;0.50;88.60
83466;DHT22;73393;51.946;20.140;2024-01-30T03:03:28;0.40;88.50
83466;DHT22;73393;51.946;20.140;2024-01-30T03:05:54;0.30;88.50
83466;DHT22;73393;51.946;20.140;2024-01-30T03:08:19;0.30;88.70
83466;DHT22;73393;51.946;20.140;2024-01-30T03:10:45;0.30;88.80
83466;DHT22;73393;51.946;20.140;2024-01-30T03:13:11;0.30;88.90
83466;DHT22;73393;51.946;20.140;2024-01-30T03:15:36;0.30;88.90
83466;DHT22;73393;51.946;20.140;2024-01-30T03:18:02;0.20;88.90
83466;DHT22;73393;51.946;20.140;2024-01-30T03:20:31;0.20;88.90
83466;DHT22;73393;51.946;20.140;2024-01-30T03:22:59;0.20;89.00
83466;DHT22;73393;51.946;20.140;2024-01-30T03:25:24;0.20;89.40
83466;DHT22;73393;51.946;20.140;2024-01-30T03:27:51;0.10;89.40
83466;DHT22;73393;51.946;20.140;2024-01-30T03:30:17;0.10;89.30
83466;DHT22;73393;51.946;20.140;2024-01-30T03:32:43;0.10;89.40
83466;DHT22;73393;51.946;20.140;2024-01-30T03:35:09;0.10;89.50
83466;DHT22;73393;51.946;20.140;2024-01-30T03:37:35;0.20;89.50
83466;DHT22;73393;51.946;20.140;2024-01-30T03:40:02;0.20;89.20
83466;DHT22;73393;51.946;20.140;2024-01-30T03:42:28;0.20;89.20
83466;DHT22;73393;51.946;20.140;2024-01-30T03:44:54;0.20;89.20
83466;DHT22;73393;51.946;20.140;2024-01-30T03:47:20;0.20;89.10
83466;DHT22;73393;51.946;20.140;2024-01-30T03:49:46;0.10;89.10
83466;DHT22;73393;51.946;20.140;2024-01-30T03:52:12;0.10;89.20
83466;DHT22;73393;51.946;20.140;2024-01-30T03:54:38;0.10;89.30
83466;DHT22;73393;51.946;20.140;2024-01-30T03:57:03;0.10;89.30
83466;DHT22;73393;51.946;20.140;2024-01-30T03:59:29;0.10;89.50
83466;DHT22;73393;51.946;20.140;2024-01-30T04:01:55;0.10;89.70
83466;DHT22;73393;51.946;20.140;2024-01-30T04:04:20;0.10;90.10
83466;DHT22;73393;51.946;20.140;2024-01-30T04:06:46;0.10;90.00
83466;DHT22;73393;51.946;20.140;2024-01-30T04:09:13;0.10;89.90
83466;DHT22;73393;51.946;20.140;2024-01-30T04:11:39;0.20;90.00
83466;DHT22;73393;51.946;20.140;2024-01-30T04:14:05;0.20;89.80
83466;DHT22;73393;51.946;20.140;2024-01-30T04:16:30;0.20;89.90
83466;DHT22;73393;51.946;20.140;2024-01-30T04:18:56;0.20;89.60
83466;DHT22;73393;51.946;20.140;2024-01-30T04:21:21;0.20;89.50
83466;DHT22;73393;51.946;20.140;2024-01-30T04:23:48;0.20;89.50
83466;DHT22;73393;51.946;20.140;2024-01-30T04:26:14;0.30;89.40
83466;DHT22;73393;51.946;20.140;2024-01-30T04:28:41;0.20;89.20
83466;DHT22;73393;51.946;20.140;2024-01-30T04:31:07;0.30;89.10
83466;DHT22;73393;51.946;20.140;2024-01-30T04:33:32;0.30;88.80
83466;DHT22;73393;51.946;20.140;2024-01-30T04:35:58;0.30;89.00
83466;DHT22;73393;51.946;20.140;2024-01-30T04:38:24;0.30;89.10
83466;DHT22;73393;51.946;20.140;2024-01-30T04:40:49;0.30;88.70
83466;DHT22;73393;51.946;20.140;2024-01-30T04:43:15;0.30;88.60
83466;DHT22;73393;51.946;20.140;2024-01-30T04:45:41;0.30;88.80
83466;DHT22;73393;51.946;20.140;2024-01-30T04:48:07;0.40;88.70
83466;DHT22;73393;51.946;20.140;2024-01-30T04:50:32;0.40;88.70
83466;DHT22;73393;51.946;20.140;2024-01-30T04:52:58;0.40;88.90
83466;DHT22;73393;51.946;20.140;2024-01-30T04:55:24;0.50;88.50
83466;DHT22;73393;51.946;20.140;2024-01-30T04:57:49;0.50;88.10
83466;DHT22;73393;51.946;20.140;2024-01-30T05:00:15;0.50;88.20
83466;DHT22;73393;51.946;20.140;2024-01-30T05:02:41;0.50;87.90
83466;DHT22;73393;51.946;20.140;2024-01-30T05:05:06;0.50;87.90
83466;DHT22;73393;51.946;20.140;2024-01-30T05:07:33;0.50;88.00
83466;DHT22;73393;51.946;20.140;2024-01-30T05:09:59;0.50;88.10
83466;DHT22;73393;51.946;20.140;2024-01-30T05:12:25;0.40;87.90
83466;DHT22;73393;51.946;20.140;2024-01-30T05:14:51;0.30;88.20
83466;DHT22;73393;51.946;20.140;2024-01-30T05:17:16;0.30;88.40
83466;DHT22;73393;51.946;20.140;2024-01-30T05:19:43;0.30;88.50
83466;DHT22;73393;51.946;20.140;2024-01-30T05:22:09;0.20;88.90
83466;DHT22;73393;51.946;20.140;2024-01-30T05:24:36;0.20;89.10
83466;DHT22;73393;51.946;20.140;2024-01-30T05:27:01;0.20;89.00
83466;DHT22;73393;51.946;20.140;2024-01-30T05:29:27;0.20;89.30
83466;DHT22;73393;51.946;20.140;2024-01-30T05:31:53;0.10;89.20
83466;DHT22;73393;51.946;20.140;2024-01-30T05:34:18;0.10;89.20
83466;DHT22;73393;51.946;20.140;2024-01-30T05:36:44;0.10;89.50
83466;DHT22;73393;51.946;20.140;2024-01-30T05:39:10;0.10;89.60
83466;DHT22;73393;51.946;20.140;2024-01-30T05:41:36;0.10;89.70
83466;DHT22;73393;51.946;20.140;2024-01-30T05:44:01;0.10;89.70
83466;DHT22;73393;51.946;20.140;2024-01-30T05:46:27;0.00;89.70
83466;DHT22;73393;51.946;20.140;2024-01-30T05:48:52;0.00;89.70
83466;DHT22;73393;51.946;20.140;2024-01-30T05:51:18;0.00;90.00
83466;DHT22;73393;51.946;20.140;2024-01-30T05:53:44;0.00;90.40
83466;DHT22;73393;51.946;20.140;2024-01-30T05:56:09;0.00;90.40
83466;DHT22;73393;51.946;20.140;2024-01-30T05:58:35;0.00;90.50
83466;DHT22;73393;51.946;20.140;2024-01-30T06:01:03;0.00;90.50
83466;DHT22;73393;51.946;20.140;2024-01-30T06:03:28;0.00;90.70
83466;DHT22;73393;51.946;20.140;2024-01-30T06:05:54;0.00;90.90
83466;DHT22;73393;51.946;20.140;2024-01-30T06:08:19;0.00;90.80
83466;DHT22;73393;51.946;20.140;2024-01-30T06:10:45;0.00;90.70
83466;DHT22;73393;51.946;20.140;2024-01-30T06:13:11;0.00;90.70
83466;DHT22;73393;51.946;20.140;2024-01-30T06:15:36;0.00;90.80
83466;DHT22;73393;51.946;20.140;2024-01-30T06:18:02;0.00;90.90
83466;DHT22;73393;51.946;20.140;2024-01-30T06:20:28;0.00;90.80
83466;DHT22;73393;51.946;20.140;2024-01-30T06:22:53;-0.10;90.80
83466;DHT22;73393;51.946;20.140;2024-01-30T06:25:19;-0.10;91.10
83466;DHT22;73393;51.946;20.140;2024-01-30T06:27:45;0.00;91.10
83466;DHT22;73393;51.946;20.140;2024-01-30T06:30:11;0.00;91.00
83466;DHT22;73393;51.946;20.140;2024-01-30T06:32:36;0.00;90.90
83466;DHT22;73393;51.946;20.140;2024-01-30T06:35:02;0.00;90.80
83466;DHT22;73393;51.946;20.140;2024-01-30T06:37:28;0.10;90.50
83466;DHT22;73393;51.946;20.140;2024-01-30T06:39:53;0.10;90.60
83466;DHT22;73393;51.946;20.140;2024-01-30T06:42:19;0.20;90.30
83466;DHT22;73393;51.946;20.140;2024-01-30T06:44:45;0.20;90.20
83466;DHT22;73393;51.946;20.140;2024-01-30T06:47:10;0.30;90.20
83466;DHT22;73393;51.946;20.140;2024-01-30T06:49:36;0.30;90.10
83466;DHT22;73393;51.946;20.140;2024-01-30T06:52:06;0.30;89.90
83466;DHT22;73393;51.946;20.140;2024-01-30T06:54:31;0.40;89.70
83466;DHT22;73393;51.946;20.140;2024-01-30T06:56:58;0.50;89.40
83466;DHT22;73393;51.946;20.140;2024-01-30T06:59:23;0.60;89.00
83466;DHT22;73393;51.946;20.140;2024-01-30T07:01:49;0.60;88.60
83466;DHT22;73393;51.946;20.140;2024-01-30T07:04:15;0.70;88.60
83466;DHT22;73393;51.946;20.140;2024-01-30T07:06:41;0.70;88.60
83466;DHT22;73393;51.946;20.140;2024-01-30T07:09:07;0.80;88.50
83466;DHT22;73393;51.946;20.140;2024-01-30T07:11:32;0.80;88.20
83466;DHT22;73393;51.946;20.140;2024-01-30T07:13:58;0.90;87.80
83466;DHT22;73393;51.946;20.140;2024-01-30T07:16:23;1.00;87.40
83466;DHT22;73393;51.946;20.140;2024-01-30T07:18:49;1.10;86.90
83466;DHT22;73393;51.946;20.140;2024-01-30T07:21:15;1.10;87.00
83466;DHT22;73393;51.946;20.140;2024-01-30T07:23:41;1.20;86.40
83466;DHT22;73393;51.946;20.140;2024-01-30T07:26:07;1.30;86.30
83466;DHT22;73393;51.946;20.140;2024-01-30T07:28:34;1.40;85.80
83466;DHT22;73393;51.946;20.140;2024-01-30T07:31:00;1.50;85.60
83466;DHT22;73393;51.946;20.140;2024-01-30T07:33:26;1.60;84.90
83466;DHT22;73393;51.946;20.140;2024-01-30T07:35:55;1.70;84.80
83466;DHT22;73393;51.946;20.140;2024-01-30T07:38:20;1.70;84.60
83466;DHT22;73393;51.946;20.140;2024-01-30T07:40:47;1.90;84.30
83466;DHT22;73393;51.946;20.140;2024-01-30T07:43:13;1.90;83.60
83466;DHT22;73393;51.946;20.140;2024-01-30T07:45:39;2.00;83.60
83466;DHT22;73393;51.946;20.140;2024-01-30T07:48:05;2.10;83.00
83466;DHT22;73393;51.946;20.140;2024-01-30T07:50:31;2.20;82.60
83466;DHT22;73393;51.946;20.140;2024-01-30T07:52:59;2.20;82.00
83466;DHT22;73393;51.946;20.140;2024-01-30T07:55:59;2.30;81.80
83466;DHT22;73393;51.946;20.140;2024-01-30T07:58:24;2.30;81.60
83466;DHT22;73393;51.946;20.140;2024-01-30T08:00:52;2.40;81.50
83466;DHT22;73393;51.946;20.140;2024-01-30T08:03:18;2.50;80.80
83466;DHT22;73393;51.946;20.140;2024-01-30T08:05:44;2.50;81.00
83466;DHT22;73393;51.946;20.140;2024-01-30T08:08:10;2.60;80.40
83466;DHT22;73393;51.946;20.140;2024-01-30T08:10:36;2.70;80.30
83466;DHT22;73393;51.946;20.140;2024-01-30T08:13:02;2.70;79.40
83466;DHT22;73393;51.946;20.140;2024-01-30T08:15:27;2.80;79.80
83466;DHT22;73393;51.946;20.140;2024-01-30T08:17:53;2.80;79.00
83466;DHT22;73393;51.946;20.140;2024-01-30T08:20:23;2.90;78.60
83466;DHT22;73393;51.946;20.140;2024-01-30T08:22:49;2.90;78.60
83466;DHT22;73393;51.946;20.140;2024-01-30T08:25:14;3.00;78.40
83466;DHT22;73393;51.946;20.140;2024-01-30T08:27:40;3.10;78.00
83466;DHT22;73393;51.946;20.140;2024-01-30T08:30:07;3.10;77.40
83466;DHT22;73393;51.946;20.140;2024-01-30T08:32:34;3.20;77.30
83466;DHT22;73393;51.946;20.140;2024-01-30T08:35:00;3.30;77.60
83466;DHT22;73393;51.946;20.140;2024-01-30T08:37:29;3.30;77.00
83466;DHT22;73393;51.946;20.140;2024-01-30T08:39:55;3.40;76.70
83466;DHT22;73393;51.946;20.140;2024-01-30T08:42:20;3.40;76.70
83466;DHT22;73393;51.946;20.140;2024-01-30T08:44:51;3.40;76.10
83466;DHT22;73393;51.946;20.140;2024-01-30T08:47:18;3.50;76.10
83466;DHT22;73393;51.946;20.140;2024-01-30T08:49:44;3.50;75.30
83466;DHT22;73393;51.946;20.140;2024-01-30T08:52:10;3.60;75.60
83466;DHT22;73393;51.946;20.140;2024-01-30T08:54:36;3.60;75.60
83466;DHT22;73393;51.946;20.140;2024-01-30T08:57:02;3.70;75.70
83466;DHT22;73393;51.946;20.140;2024-01-30T08:59:27;3.70;75.60
83466;DHT22;73393;51.946;20.140;2024-01-30T09:01:53;3.80;75.20
83466;DHT22;73393;51.946;20.140;2024-01-30T09:04:21;3.80;75.30
83466;DHT22;73393;51.946;20.140;2024-01-30T09:06:47;3.90;74.70
83466;DHT22;73393;51.946;20.140;2024-01-30T09:09:13;4.00;74.30
83466;DHT22;73393;51.946;20.140;2024-01-30T09:11:40;4.00;74.20
83466;DHT22;73393;51.946;20.140;2024-01-30T09:14:05;4.00;74.60
83466;DHT22;73393;51.946;20.140;2024-01-30T09:16:31;4.10;74.30
83466;DHT22;73393;51.946;20.140;2024-01-30T09:18:57;4.10;73.80
83466;DHT22;73393;51.946;20.140;2024-01-30T09:21:22;4.20;73.90
83466;DHT22;73393;51.946;20.140;2024-01-30T09:23:48;4.20;73.50
83466;DHT22;73393;51.946;20.140;2024-01-30T09:26:14;4.20;73.50
83466;DHT22;73393;51.946;20.140;2024-01-30T09:28:40;4.30;73.20
83466;DHT22;73393;51.946;20.140;2024-01-30T09:31:11;4.20;72.80
83466;DHT22;73393;51.946;20.140;2024-01-30T09:33:37;4.30;73.30
83466;DHT22;73393;51.946;20.140;2024-01-30T09:36:03;4.40;73.20
83466;DHT22;73393;51.946;20.140;2024-01-30T09:38:29;4.50;73.20
83466;DHT22;73393;51.946;20.140;2024-01-30T09:40:55;4.40;72.90
83466;DHT22;73393;51.946;20.140;2024-01-30T09:43:23;4.50;73.40
83466;DHT22;73393;51.946;20.140;2024-01-30T09:45:53;4.60;72.80
83466;DHT22;73393;51.946;20.140;2024-01-30T09:48:19;4.60;72.80
83466;DHT22;73393;51.946;20.140;2024-01-30T09:50:45;4.60;72.20
83466;DHT22;73393;51.946;20.140;2024-01-30T09:53:13;4.70;72.00
83466;DHT22;73393;51.946;20.140;2024-01-30T09:55:42;4.70;72.10
83466;DHT22;73393;51.946;20.140;2024-01-30T09:58:08;4.80;72.00
83466;DHT22;73393;51.946;20.140;2024-01-30T10:00:34;4.80;71.80
83466;DHT22;73393;51.946;20.140;2024-01-30T10:02:59;4.90;71.50
83466;DHT22;73393;51.946;20.140;2024-01-30T10:05:27;4.90;71.10
83466;DHT22;73393;51.946;20.140;2024-01-30T10:07:54;4.90;71.40
83466;DHT22;73393;51.946;20.140;2024-01-30T10:10:23;5.00;71.20
83466;DHT22;73393;51.946;20.140;2024-01-30T10:12:49;5.00;71.20
83466;DHT22;73393;51.946;20.140;2024-01-30T10:15:15;5.00;70.90
83466;DHT22;73393;51.946;20.140;2024-01-30T10:17:40;5.10;70.60
83466;DHT22;73393;51.946;20.140;2024-01-30T10:20:06;5.20;70.50
83466;DHT22;73393;51.946;20.140;2024-01-30T10:22:33;5.20;70.60
83466;DHT22;73393;51.946;20.140;2024-01-30T10:25:00;5.30;70.20
83466;DHT22;73393;51.946;20.140;2024-01-30T10:27:26;5.30;70.50
83466;DHT22;73393;51.946;20.140;2024-01-30T10:29:52;5.30;70.00
83466;DHT22;73393;51.946;20.140;2024-01-30T10:32:19;5.30;69.80
83466;DHT22;73393;51.946;20.140;2024-01-30T10:34:45;5.30;69.10
83466;DHT22;73393;51.946;20.140;2024-01-30T10:37:11;5.40;68.70
83466;DHT22;73393;51.946;20.140;2024-01-30T10:39:39;5.40;68.70
83466;DHT22;73393;51.946;20.140;2024-01-30T10:42:06;5.50;69.10
83466;DHT22;73393;51.946;20.140;2024-01-30T10:47:28;5.60;68.90
83466;DHT22;73393;51.946;20.140;2024-01-30T10:49:55;5.70;69.40
83466;DHT22;73393;51.946;20.140;2024-01-30T10:52:22;5.70;69.20
83466;DHT22;73393;51.946;20.140;2024-01-30T10:54:50;5.80;68.30
83466;DHT22;73393;51.946;20.140;2024-01-30T10:57:17;5.80;68.50
83466;DHT22;73393;51.946;20.140;2024-01-30T10:59:44;5.90;68.80
83466;DHT22;73393;51.946;20.140;2024-01-30T11:02:11;5.90;68.40
83466;DHT22;73393;51.946;20.140;2024-01-30T11:04:43;5.90;66.90
83466;DHT22;73393;51.946;20.140;2024-01-30T11:07:18;6.00;68.40
83466;DHT22;73393;51.946;20.140;2024-01-30T11:09:51;6.00;68.90
83466;DHT22;73393;51.946;20.140;2024-01-30T11:12:20;6.00;68.30
83466;DHT22;73393;51.946;20.140;2024-01-30T11:14:46;6.10;66.80
83466;DHT22;73393;51.946;20.140;2024-01-30T11:17:13;6.10;68.20
83466;DHT22;73393;51.946;20.140;2024-01-30T11:19:39;6.10;67.60
83466;DHT22;73393;51.946;20.140;2024-01-30T11:22:06;6.20;67.10
83466;DHT22;73393;51.946;20.140;2024-01-30T11:24:39;6.30;67.70
83466;DHT22;73393;51.946;20.140;2024-01-30T11:27:08;6.40;67.70
83466;DHT22;73393;51.946;20.140;2024-01-30T11:29:35;6.40;66.70
83466;DHT22;73393;51.946;20.140;2024-01-30T11:32:00;6.50;66.30
83466;DHT22;73393;51.946;20.140;2024-01-30T11:34:26;6.50;67.00
83466;DHT22;73393;51.946;20.140;2024-01-30T11:37:12;6.50;66.80
83466;DHT22;73393;51.946;20.140;2024-01-30T11:39:39;6.40;67.10
83466;DHT22;73393;51.946;20.140;2024-01-30T11:42:07;6.50;67.20
83466;DHT22;73393;51.946;20.140;2024-01-30T11:44:35;6.50;66.90
83466;DHT22;73393;51.946;20.140;2024-01-30T11:47:01;6.60;67.00
83466;DHT22;73393;51.946;20.140;2024-01-30T11:49:29;6.60;66.90
83466;DHT22;73393;51.946;20.140;2024-01-30T11:51:54;6.70;66.50
83466;DHT22;73393;51.946;20.140;2024-01-30T11:54:20;6.80;65.90
83466;DHT22;73393;51.946;20.140;2024-01-30T11:56:45;6.80;66.60
83466;DHT22;73393;51.946;20.140;2024-01-30T11:59:11;6.90;66.80
83466;DHT22;73393;51.946;20.140;2024-01-30T12:01:37;7.00;65.80
83466;DHT22;73393;51.946;20.140;2024-01-30T12:04:02;7.00;65.50
83466;DHT22;73393;51.946;20.140;2024-01-30T12:06:28;7.00;65.60
83466;DHT22;73393;51.946;20.140;2024-01-30T12:09:01;7.00;64.50
83466;DHT22;73393;51.946;20.140;2024-01-30T12:11:29;7.10;64.70
83466;DHT22;73393;51.946;20.140;2024-01-30T12:13:56;7.10;64.60
83466;DHT22;73393;51.946;20.140;2024-01-30T12:16:22;7.10;64.60
83466;DHT22;73393;51.946;20.140;2024-01-30T12:18:48;7.10;65.40
83466;DHT22;73393;51.946;20.140;2024-01-30T12:21:17;7.20;64.80
83466;DHT22;73393;51.946;20.140;2024-01-30T12:23:43;7.20;64.60
83466;DHT22;73393;51.946;20.140;2024-01-30T12:26:10;7.20;63.20
83466;DHT22;73393;51.946;20.140;2024-01-30T12:28:36;7.30;63.40
83466;DHT22;73393;51.946;20.140;2024-01-30T12:31:03;7.30;63.40
83466;DHT22;73393;51.946;20.140;2024-01-30T12:33:29;7.30;63.70
83466;DHT22;73393;51.946;20.140;2024-01-30T12:36:04;7.40;63.40
83466;DHT22;73393;51.946;20.140;2024-01-30T12:38:30;7.30;63.20
83466;DHT22;73393;51.946;20.140;2024-01-30T12:40:56;7.30;63.90
83466;DHT22;73393;51.946;20.140;2024-01-30T12:43:23;7.20;63.80
83466;DHT22;73393;51.946;20.140;2024-01-30T12:45:49;7.10;63.80
83466;DHT22;73393;51.946;20.140;2024-01-30T12:48:15;7.10;63.80
83466;DHT22;73393;51.946;20.140;2024-01-30T12:50:41;7.20;64.60
83466;DHT22;73393;51.946;20.140;2024-01-30T12:53:07;7.30;64.40
83466;DHT22;73393;51.946;20.140;2024-01-30T12:55:34;7.30;64.90
83466;DHT22;73393;51.946;20.140;2024-01-30T12:58:00;7.40;64.40
83466;DHT22;73393;51.946;20.140;2024-01-30T13:00:25;7.40;63.70
83466;DHT22;73393;51.946;20.140;2024-01-30T13:02:51;7.40;64.30
83466;DHT22;73393;51.946;20.140;2024-01-30T13:05:17;7.40;64.20
83466;DHT22;73393;51.946;20.140;2024-01-30T13:07:44;7.40;64.20
83466;DHT22;73393;51.946;20.140;2024-01-30T13:10:09;7.40;64.90
83466;DHT22;73393;51.946;20.140;2024-01-30T13:12:35;7.50;64.60
83466;DHT22;73393;51.946;20.140;2024-01-30T13:15:02;7.40;64.50
83466;DHT22;73393;51.946;20.140;2024-01-30T13:17:30;7.40;65.30
83466;DHT22;73393;51.946;20.140;2024-01-30T13:19:55;7.50;64.10
83466;DHT22;73393;51.946;20.140;2024-01-30T13:22:21;7.50;64.60
83466;DHT22;73393;51.946;20.140;2024-01-30T13:24:47;7.50;64.80
83466;DHT22;73393;51.946;20.140;2024-01-30T13:27:13;7.50;64.10
83466;DHT22;73393;51.946;20.140;2024-01-30T13:29:38;7.50;64.20
83466;DHT22;73393;51.946;20.140;2024-01-30T13:32:04;7.60;64.40
83466;DHT22;73393;51.946;20.140;2024-01-30T13:34:30;7.50;63.70
83466;DHT22;73393;51.946;20.140;2024-01-30T13:36:55;7.60;63.50
83466;DHT22;73393;51.946;20.140;2024-01-30T13:39:21;7.60;63.60
83466;DHT22;73393;51.946;20.140;2024-01-30T13:41:47;7.60;63.70
83466;DHT22;73393;51.946;20.140;2024-01-30T13:44:13;7.50;63.70
83466;DHT22;73393;51.946;20.140;2024-01-30T13:46:41;7.50;63.60
83466;DHT22;73393;51.946;20.140;2024-01-30T13:49:07;7.50;63.90
83466;DHT22;73393;51.946;20.140;2024-01-30T13:51:32;7.40;64.40
83466;DHT22;73393;51.946;20.140;2024-01-30T13:53:58;7.40;64.20
83466;DHT22;73393;51.946;20.140;2024-01-30T13:56:24;7.40;64.30
83466;DHT22;73393;51.946;20.140;2024-01-30T13:58:50;7.40;65.10
83466;DHT22;73393;51.946;20.140;2024-01-30T14:01:16;7.40;64.90
83466;DHT22;73393;51.946;20.140;2024-01-30T14:03:42;7.40;65.30
83466;DHT22;73393;51.946;20.140;2024-01-30T14:06:07;7.30;65.40
83466;DHT22;73393;51.946;20.140;2024-01-30T14:08:33;7.30;65.60
83466;DHT22;73393;51.946;20.140;2024-01-30T14:10:59;7.20;65.40
83466;DHT22;73393;51.946;20.140;2024-01-30T14:13:24;7.20;65.50
83466;DHT22;73393;51.946;20.140;2024-01-30T14:15:51;7.20;65.70
83466;DHT22;73393;51.946;20.140;2024-01-30T14:18:17;7.20;65.30
83466;DHT22;73393;51.946;20.140;2024-01-30T14:20:43;7.10;65.30
83466;DHT22;73393;51.946;20.140;2024-01-30T14:23:09;7.10;65.70
83466;DHT22;73393;51.946;20.140;2024-01-30T14:25:34;7.10;65.70
83466;DHT22;73393;51.946;20.140;2024-01-30T14:28:00;7.00;65.90
83466;DHT22;73393;51.946;20.140;2024-01-30T14:30:26;6.90;65.60
83466;DHT22;73393;51.946;20.140;2024-01-30T14:32:51;6.90;66.50
83466;DHT22;73393;51.946;20.140;2024-01-30T14:35:17;6.90;66.50
83466;DHT22;73393;51.946;20.140;2024-01-30T14:37:42;6.80;66.40
83466;DHT22;73393;51.946;20.140;2024-01-30T14:40:08;6.70;66.80
83466;DHT22;73393;51.946;20.140;2024-01-30T14:42:34;6.70;66.90
83466;DHT22;73393;51.946;20.140;2024-01-30T14:45:00;6.60;67.30
83466;DHT22;73393;51.946;20.140;2024-01-30T14:47:26;6.50;67.60
83466;DHT22;73393;51.946;20.140;2024-01-30T14:49:51;6.40;67.60
83466;DHT22;73393;51.946;20.140;2024-01-30T14:52:17;6.40;67.70
83466;DHT22;73393;51.946;20.140;2024-01-30T14:54:43;6.30;68.10
83466;DHT22;73393;51.946;20.140;2024-01-30T14:57:09;6.20;68.50
83466;DHT22;73393;51.946;20.140;2024-01-30T14:59:35;6.10;68.90
83466;DHT22;73393;51.946;20.140;2024-01-30T15:02:01;6.00;69.00
83466;DHT22;73393;51.946;20.140;2024-01-30T15:04:26;6.00;69.20
83466;DHT22;73393;51.946;20.140;2024-01-30T15:06:53;5.80;69.80
83466;DHT22;73393;51.946;20.140;2024-01-30T15:09:19;5.70;69.80
83466;DHT22;73393;51.946;20.140;2024-01-30T15:11:47;5.60;70.00
83466;DHT22;73393;51.946;20.140;2024-01-30T15:14:14;5.50;70.30
83466;DHT22;73393;51.946;20.140;2024-01-30T15:16:40;5.40;70.70
83466;DHT22;73393;51.946;20.140;2024-01-30T15:19:05;5.30;70.80
83466;DHT22;73393;51.946;20.140;2024-01-30T15:21:32;5.20;71.10
83466;DHT22;73393;51.946;20.140;2024-01-30T15:23:57;5.20;71.30
83466;DHT22;73393;51.946;20.140;2024-01-30T15:26:23;5.10;71.50